Norwegian Spirit — C6TQ6 — position and weather

sailwx.info

Track history (hours):
 
Tides and Currents Weather Stations Pressure Air Temp Water Temp Dewpoint Dewpoint Depression Visibility Wind Speed Wind Dir Waves Ship Positions

Norwegian Spirit

Operator: Norwegian Cruise Line

Last reported at 2017-Jul-24 02:00 UTC. Time now 2017-Jul-24 02:32 UTC.
Position N 36°12' E 027°12'.

Type: Passenger vessel. MMSI: 311746000.

Wind from 330 at 28 knots

Barometer 1014.0 mb
Air temperature 25.0 ° C
Visibility: greater than 10.8 NM
Dewpoint 20.7 ° C
Water temperature 25.0 ° C

Date/timePositionNaut miles runAvg speedWind from/ knotsBaromVisibWave heightAir tempDewpointWater temp
2017-Jul-24 02:00N 36°12' E 027°12'4422.0 330 / 281014.010.8 25.020.725.0
2017-Jul-24 00:00N 36°06' E 026°18'2525.0 330 / 301014.010.8 25.020.725.0
2017-Jul-23 23:00N 36°00' E 025°48'12218.0 320 / 221015.010.8 25.020.725.0
2017-Jul-23 16:11N 37°19' E 023°52'318.7
2017-Jul-23 16:00N 37°22' E 023°50'1020.3
2017-Jul-23 15:31N 37°32' E 023°46'1019.9
2017-Jul-23 15:01N 37°41' E 023°42'1020.6
2017-Jul-23 14:30N 37°50' E 023°37'611.7
2017-Jul-23 13:58N 37°56' E 023°38'0 0.4
2017-Jul-23 13:28N 37°56' E 023°38'0 0.0
2017-Jul-23 12:58N 37°56' E 023°38'0 0.0
2017-Jul-23 12:28N 37°56' E 023°38'0 0.0
2017-Jul-23 11:58N 37°56' E 023°38'0 0.0
2017-Jul-23 11:28N 37°56' E 023°38'0 0.0
2017-Jul-23 10:58N 37°56' E 023°38'0 0.0
2017-Jul-23 10:28N 37°56' E 023°38'0 0.0
2017-Jul-23 09:58N 37°56' E 023°38'0 0.0
2017-Jul-23 09:28N 37°56' E 023°38'0 0.0
2017-Jul-23 08:58N 37°56' E 023°38'0 0.0
2017-Jul-23 08:28N 37°56' E 023°38'0 0.0
2017-Jul-23 07:58N 37°56' E 023°38'0 0.0
2017-Jul-23 07:28N 37°56' E 023°38'0 0.0
2017-Jul-23 06:58N 37°56' E 023°38'0 0.0
2017-Jul-23 06:28N 37°56' E 023°38'0 0.0
2017-Jul-23 05:58N 37°56' E 023°38'0 0.0
2017-Jul-23 05:28N 37°56' E 023°38'0 0.4
2017-Jul-23 05:00N 37°56' E 023°38'2 3.3
2017-Jul-23 04:30N 37°55' E 023°37'1 1.5
2017-Jul-23 04:00N 37°55' E 023°37'5 9.7
2017-Jul-23 03:30N 37°50' E 023°40'713.5
2017-Jul-23 03:00N 37°44' E 023°43'713.1
2017-Jul-23 02:30N 37°39' E 023°49'713.1
2017-Jul-23 02:01N 37°36' E 023°56'1013.7
2017-Jul-23 01:17N 37°37' E 024°09'914.2
2017-Jul-23 00:38N 37°43' E 024°17'711.3
2017-Jul-23 00:00N 37°48' E 024°24'2110.9 350 / 231021.010.8 25.022.226.0
2017-Jul-22 23:59N 37°48' E 024°26'7 6.6
2017-Jul-22 23:00N 37°54' E 024°30'1111.2 360 / 211021.010.8 25.020.726.0
2017-Jul-22 22:00N 38°00' E 024°42'3516.9 330 / 311021.010.8 25.020.726.0
2017-Jul-22 19:55N 37°56' E 025°26'613.8
2017-Jul-22 19:30N 37°51' E 025°31'713.8
2017-Jul-22 19:00N 37°46' E 025°36'713.3
2017-Jul-22 18:30N 37°40' E 025°31'714.3
2017-Jul-22 18:00N 37°36' E 025°24'714.4
2017-Jul-22 17:30N 37°31' E 025°17'3 6.9
2017-Jul-22 17:00N 37°28' E 025°19'0 0.0
2017-Jul-22 16:30N 37°28' E 025°19'0 0.0
2017-Jul-22 16:00N 37°28' E 025°19'0 0.0
2017-Jul-22 15:27N 37°28' E 025°19'0 0.0
2017-Jul-22 15:00N 37°28' E 025°19'0 0.0
2017-Jul-22 13:57N 37°28' E 025°19'0 0.0
2017-Jul-22 13:24N 37°28' E 025°19'0 0.0
2017-Jul-22 12:57N 37°28' E 025°19'0 0.0
2017-Jul-22 12:30N 37°28' E 025°19'0 0.0
2017-Jul-22 12:00N 37°28' E 025°19'0 0.0
2017-Jul-22 11:27N 37°28' E 025°19'0 0.0
2017-Jul-22 11:00N 37°28' E 025°19'0 0.0
2017-Jul-22 10:27N 37°28' E 025°19'0 0.0
2017-Jul-22 09:57N 37°28' E 025°19'0 0.0
2017-Jul-22 09:30N 37°28' E 025°19'0 0.0
2017-Jul-22 09:00N 37°28' E 025°19'0 0.0
2017-Jul-22 08:30N 37°28' E 025°19'0 0.3
2017-Jul-22 08:01N 37°28' E 025°19'714.9
2017-Jul-22 07:31N 37°27' E 025°10'1019.6
2017-Jul-22 07:00N 37°21' E 024°59'1019.7
2017-Jul-22 06:31N 37°15' E 024°50'10218.4
2017-Jul-22 01:00N 36°24' E 023°00'2524.9 300 / 101019.010.8 26.023.225.0
2017-Jul-22 00:00N 36°18' E 022°30'1919.3 020 / 101019.010.8 26.023.225.0
2017-Jul-21 23:00N 36°18' E 022°06'4020.2 130 / 91020.010.8 26.023.225.0
2017-Jul-21 21:00N 36°30' E 021°18'2524.8 340 / 14 5.4 25.0
2017-Jul-21 20:00N 36°36' E 020°48'6521.7 340 / 14 10.8 26.0
2017-Jul-21 17:00N 36°54' E 019°30'1118.1 350 / 71024.027.0 25.0
2017-Jul-21 16:23N 36°58' E 019°17'615.7
2017-Jul-21 16:00N 36°54' E 019°12'1635.2 340 / 81022.010.8 25.022.226.0
2017-Jul-21 15:32N 37°03' E 018°55'221.2
2017-Jul-21 15:27N 37°04' E 018°53'2521.0
2017-Jul-21 14:15N 37°10' E 018°23'933.2
2017-Jul-21 14:00N 37°12' E 018°12'357.4 270 / 91022.010.8 25.022.226.0
2017-Jul-21 13:57N 37°12' E 018°15'1717.6
2017-Jul-21 12:58N 37°16' E 017°55'1420.9
2017-Jul-21 12:17N 37°20' E 017°37'621.1
2017-Jul-21 12:00N 37°21' E 017°30'1121.3
2017-Jul-21 11:30N 37°24' E 017°17'1021.3
2017-Jul-21 11:00N 37°27' E 017°04'463403.4
2017-Jul-21 11:00N 37°24' E 016°06'3674.6 190 / 31022.010.8 25.020.725.0
2017-Jul-21 10:30N 37°30' E 016°51'1121.2
2017-Jul-21 10:00N 37°32' E 016°38'1021.2
2017-Jul-21 09:30N 37°35' E 016°26'1121.3
2017-Jul-21 09:00N 37°38' E 016°13'1020.8
2017-Jul-21 08:30N 37°41' E 016°00'1019.8
2017-Jul-21 08:00N 37°45' E 015°49'1119.0
2017-Jul-21 07:25N 37°53' E 015°39'818.9
2017-Jul-21 07:00N 38°00' E 015°34'1019.6
2017-Jul-21 06:30N 38°10' E 015°35'714.9
2017-Jul-21 06:00N 38°16' E 015°40'917.8
2017-Jul-21 05:30N 38°24' E 015°37'1121.2
2017-Jul-21 05:00N 38°34' E 015°31'1020.9
2017-Jul-21 04:30N 38°43' E 015°26'1021.0
2017-Jul-21 04:00N 38°52' E 015°19'4289.8
2017-Jul-21 04:00N 38°48' E 015°18'1428.7 1026.010.8 26.0
2017-Jul-21 03:30N 39°01' E 015°11'1120.9
2017-Jul-21 03:00N 39°08' E 015°01'1121.0
2017-Jul-21 02:29N 39°16' E 014°51'1021.1
2017-Jul-21 02:00N 39°23' E 014°42'5427.0
2017-Jul-21 02:00N 39°18' E 014°42'1530.0 240 / 11021.010.8 25.020.726.0
2017-Jul-21 01:30N 39°31' E 014°32'1021.2
2017-Jul-21 01:01N 39°38' E 014°23'2134.3
2017-Jul-21 01:00N 39°36' E 014°24'1326.2 190 / 21021.010.8 25.020.7
2017-Jul-21 00:30N 39°45' E 014°13'1020.8
2017-Jul-21 00:00N 39°53' E 014°03'1021.0
2017-Jul-20 23:31N 40°00' E 013°54'1121.4
2017-Jul-20 23:00N 40°08' E 013°44'2148.6
2017-Jul-20 23:00N 40°06' E 013°42'1123.4 190 / 21021.010.8 25.020.7
2017-Jul-20 22:31N 40°15' E 013°34'1121.7
2017-Jul-20 22:00N 40°23' E 013°23'1221.7
2017-Jul-20 21:26N 40°32' E 013°12'1021.5
2017-Jul-20 20:59N 40°39' E 013°03'2921.3
2017-Jul-20 19:38N 41°00' E 012°38'621.3
2017-Jul-20 19:20N 41°05' E 012°33'7021.1
2017-Jul-20 16:01N 42°03' E 011°40'119.0
2017-Jul-20 15:59N 42°04' E 011°40'13 0.9
2017-Jul-20 01:57N 41°51' E 011°46'816.6
2017-Jul-20 01:27N 41°44' E 011°52'717.1
2017-Jul-20 01:00N 41°39' E 011°58'9571.7
2017-Jul-20 01:00N 41°30' E 012°00'5 9.7 280 / 71024.010.8 25.022.226.0
2017-Jul-20 00:28N 41°32' E 012°06'817.4
2017-Jul-19 23:59N 41°25' E 012°14'1515.4
2017-Jul-19 23:00N 41°12' E 012°24'1134.4 330 / 81024.010.8 25.022.226.0
2017-Jul-19 22:40N 41°12' E 012°39'1319.3
2017-Jul-19 22:00N 41°06' E 012°54'1115.6 290 / 131024.010.8 25.022.226.0
2017-Jul-19 21:18N 41°02' E 013°08'517.3
2017-Jul-19 21:01N 40°60' E 013°13'917.2
2017-Jul-19 20:31N 40°55' E 013°23'917.2
2017-Jul-19 20:01N 40°50' E 013°32'7393.0
2017-Jul-19 20:00N 40°48' E 013°24'1326.7 310 / 131024.010.8 26.021.7
2017-Jul-19 19:31N 40°44' E 013°40'816.1
2017-Jul-19 19:00N 40°39' E 013°48'816.1
2017-Jul-19 18:30N 40°38' E 013°59'917.1
2017-Jul-19 18:00N 40°42' E 014°08'817.0
2017-Jul-19 17:30N 40°48' E 014°16'2 4.2
2017-Jul-19 17:00N 40°50' E 014°16'0 0.0
2017-Jul-19 16:27N 40°50' E 014°16'0 0.0
2017-Jul-19 15:45N 40°50' E 014°16'0 0.0
2017-Jul-19 15:27N 40°50' E 014°16'0 0.0
2017-Jul-19 15:00N 40°50' E 014°16'0 0.0
2017-Jul-19 14:30N 40°50' E 014°16'0 0.0
2017-Jul-19 13:57N 40°50' E 014°16'0 0.0
2017-Jul-19 13:27N 40°50' E 014°16'0 0.0
2017-Jul-19 13:00N 40°50' E 014°16'0 0.0
2017-Jul-19 12:30N 40°50' E 014°16'0 0.0
2017-Jul-19 12:00N 40°50' E 014°16'0 0.0
2017-Jul-19 11:27N 40°50' E 014°16'0 0.0
2017-Jul-19 11:00N 40°50' E 014°16'0 0.0
2017-Jul-19 10:30N 40°50' E 014°16'0 0.0
2017-Jul-19 10:00N 40°50' E 014°16'0 0.0
2017-Jul-19 09:30N 40°50' E 014°16'0 0.0
2017-Jul-19 09:00N 40°50' E 014°16'1 0.2
2017-Jul-19 04:10N 40°50' E 014°17'2 8.5
2017-Jul-19 03:55N 40°48' E 014°17'814.3
2017-Jul-19 03:23N 40°40' E 014°17'513.9
2017-Jul-19 03:00N 40°35' E 014°17'6391.0
2017-Jul-19 03:00N 40°30' E 014°12'714.4 080 / 12 5.4 25.0
2017-Jul-19 02:30N 40°29' E 014°21'714.6
2017-Jul-19 02:00N 40°22' E 014°25'714.6
2017-Jul-19 01:30N 40°15' E 014°29'1018.5
2017-Jul-19 01:00N 40°06' E 014°30'2612.9 250 / 91021.010.8 24.021.125.0
2017-Jul-18 23:00N 39°48' E 014°54'1818.0 090 / 51021.010.8 24.021.125.0
2017-Jul-18 22:00N 39°30' E 014°54'1312.9 090 / 51021.010.8 24.021.125.0
2017-Jul-18 21:00N 39°18' E 015°00'1312.9 180 / 31021.010.8 24.021.125.0
2017-Jul-18 20:00N 39°06' E 015°06'2121.0 180 / 31021.010.8 24.021.125.0
2017-Jul-18 19:01N 38°50' E 015°22'014.9
2017-Jul-18 18:59N 38°49' E 015°22'715.1
2017-Jul-18 18:30N 38°43' E 015°26'815.1
2017-Jul-18 18:00N 38°36' E 015°31'815.1
2017-Jul-18 17:30N 38°29' E 015°35'714.9
2017-Jul-18 17:00N 38°23' E 015°40'713.8
2017-Jul-18 16:29N 38°16' E 015°41'713.7
2017-Jul-18 16:00N 38°12' E 015°34'0 0.0
2017-Jul-18 08:35N 38°12' E 015°33'0 0.0
2017-Jul-18 08:29N 38°12' E 015°33'0 0.0
2017-Jul-18 07:53N 38°12' E 015°33'0 0.0
2017-Jul-18 07:29N 38°12' E 015°33'0 0.0
2017-Jul-18 06:52N 38°12' E 015°33'0 0.0
2017-Jul-18 06:28N 38°12' E 015°33'0 0.0
2017-Jul-18 05:58N 38°12' E 015°33'0 0.0
2017-Jul-18 05:30N 38°12' E 015°34'2 3.5
2017-Jul-18 05:00N 38°13' E 015°35'5 9.6
2017-Jul-18 04:29N 38°08' E 015°36'713.6
2017-Jul-18 04:00N 38°02' E 015°36'1314.2
2017-Jul-18 03:05N 37°49' E 015°35'887.8
2017-Jul-18 03:00N 37°42' E 015°30'910.3 020 / 19 10.8 25.0
2017-Jul-18 02:09N 37°35' E 015°36'214.8
2017-Jul-18 02:00N 37°33' E 015°36'1514.5
2017-Jul-18 01:00N 37°18' E 015°36'2424.0 360 / 211024.027.0 26.021.726.0
2017-Jul-18 00:00N 36°54' E 015°36'3316.6 030 / 141024.027.0 26.021.726.0
2017-Jul-17 22:00N 36°24' E 015°18'2311.4 360 / 191024.027.0 26.021.726.0
2017-Jul-17 20:00N 36°12' E 014°54'5 9.3 090 / 41024.010.8 26.021.7
2017-Jul-17 19:29N 36°08' E 014°51'715.5
2017-Jul-17 19:00N 36°03' E 014°44'4573.3
2017-Jul-17 19:00N 36°06' E 014°48'1225.0 110 / 61024.010.8 26.021.7
2017-Jul-17 18:30N 35°58' E 014°36'7 0.7
2017-Jul-17 09:19N 35°53' E 014°31'2 6.5
2017-Jul-17 09:00N 35°55' E 014°33'714.3
2017-Jul-17 08:30N 35°60' E 014°39'1517.0
2017-Jul-17 07:37N 36°05' E 014°57'4216.0
2017-Jul-17 05:00N 36°12' E 015°48'7217.9 360 / 151020.0 5.4 25.0 26.0
2017-Jul-17 01:00N 36°36' E 017°12'4020.2 360 / 251023.0 24.0
2017-Jul-16 23:00N 36°48' E 018°00'6015.1 350 / 221023.0 24.0
2017-Jul-16 19:00N 37°06' E 019°12'5919.5 360 / 391017.0 5.4 25.022.226.0
2017-Jul-16 16:00N 37°18' E 020°24'2020.0 290 / 251015.0 5.4 26.0 26.0
2017-Jul-16 15:00N 37°24' E 020°48'30 2.3 320 / 31 10.8 27.0
2017-Jul-16 02:00N 37°06' E 021°18'3015.2 110 / 3 27.0
2017-Jul-16 00:00N 36°36' E 021°24'3417.0 330 / 51016.010.8 26.023.2
2017-Jul-15 22:00N 36°18' E 022°00'2424.2 300 / 51016.010.8 26.023.2
2017-Jul-15 21:00N 36°18' E 022°30'92 4.4 320 / 141016.010.8 26.023.2
2017-Jul-15 00:00N 36°24' E 024°24'1515.4 350 / 141024.0 24.0
2017-Jul-14 23:00N 36°36' E 024°12'5511.4 360 / 121024.0 24.0
2017-Jul-14 18:09N 37°28' E 023°48'312.2
2017-Jul-14 17:57N 37°30' E 023°47'512.4
2017-Jul-14 17:30N 37°35' E 023°45'612.7
2017-Jul-14 17:00N 37°41' E 023°41'612.6
2017-Jul-14 16:30N 37°47' E 023°39'713.0
2017-Jul-14 16:00N 37°53' E 023°37'3 6.6
2017-Jul-14 15:30N 37°56' E 023°38'0 0.1
2017-Jul-14 14:58N 37°56' E 023°38'0 0.0
2017-Jul-14 14:28N 37°56' E 023°38'0 0.0
2017-Jul-14 13:58N 37°56' E 023°38'0 0.0
2017-Jul-14 13:28N 37°56' E 023°38'0 0.0
2017-Jul-14 12:58N 37°56' E 023°38'0 0.0
2017-Jul-14 12:28N 37°56' E 023°38'0 0.0
2017-Jul-14 11:58N 37°56' E 023°38'0 0.0
2017-Jul-14 11:28N 37°56' E 023°38'0 0.0
2017-Jul-14 10:58N 37°56' E 023°38'0 0.0
2017-Jul-14 10:28N 37°56' E 023°38'0 0.0
2017-Jul-14 09:58N 37°56' E 023°38'0 0.0
2017-Jul-14 09:28N 37°56' E 023°38'0 0.0
2017-Jul-14 08:58N 37°56' E 023°38'0 0.0
2017-Jul-14 08:28N 37°56' E 023°38'0 0.0
2017-Jul-14 07:58N 37°56' E 023°38'0 0.0
2017-Jul-14 07:28N 37°56' E 023°38'0 0.0
2017-Jul-14 07:01N 37°56' E 023°38'0 0.0
2017-Jul-14 06:31N 37°56' E 023°38'0 0.0
2017-Jul-14 06:01N 37°56' E 023°38'0 0.0
2017-Jul-14 05:31N 37°56' E 023°38'1 2.8
2017-Jul-14 05:01N 37°56' E 023°37'2 4.9
2017-Jul-14 04:31N 37°53' E 023°38'713.2
2017-Jul-14 04:01N 37°47' E 023°41'714.5
2017-Jul-14 03:31N 37°41' E 023°45'815.7
2017-Jul-14 03:01N 37°33' E 023°46'815.5
2017-Jul-14 02:30N 37°25' E 023°49'815.4
2017-Jul-14 02:00N 37°18' E 023°53'4307.5
2017-Jul-14 02:00N 37°18' E 023°48'  
Track history (hours):
 
Tides and Currents Weather Stations Pressure Air Temp Water Temp Dewpoint Dewpoint Depression Visibility Wind Speed Wind Dir Waves Ship Positions

Norwegian Spirit

Operator: Norwegian Cruise Line

Last reported at 2017-Jul-24 02:00 UTC. Time now 2017-Jul-24 02:32 UTC.
Position N 36°12' E 027°12'.

Type: Passenger vessel. MMSI: 311746000.

Wind from 330 at 28 knots

Barometer 1014.0 mb
Air temperature 25.0 ° C
Visibility: greater than 10.8 NM
Dewpoint 20.7 ° C
Water temperature 25.0 ° C

Date/timePositionNaut miles runAvg speedWind from/ knotsBaromVisibWave heightAir tempDewpointWater temp
2017-Jul-24 02:00N 36°12' E 027°12'4422.0 330 / 281014.010.8 25.020.725.0
2017-Jul-24 00:00N 36°06' E 026°18'2525.0 330 / 301014.010.8 25.020.725.0
2017-Jul-23 23:00N 36°00' E 025°48'12218.0 320 / 221015.010.8 25.020.725.0
2017-Jul-23 16:11N 37°19' E 023°52'318.7
2017-Jul-23 16:00N 37°22' E 023°50'1020.3
2017-Jul-23 15:31N 37°32' E 023°46'1019.9
2017-Jul-23 15:01N 37°41' E 023°42'1020.6
2017-Jul-23 14:30N 37°50' E 023°37'611.7
2017-Jul-23 13:58N 37°56' E 023°38'0 0.4
2017-Jul-23 13:28N 37°56' E 023°38'0 0.0
2017-Jul-23 12:58N 37°56' E 023°38'0 0.0
2017-Jul-23 12:28N 37°56' E 023°38'0 0.0
2017-Jul-23 11:58N 37°56' E 023°38'0 0.0
2017-Jul-23 11:28N 37°56' E 023°38'0 0.0
2017-Jul-23 10:58N 37°56' E 023°38'0 0.0
2017-Jul-23 10:28N 37°56' E 023°38'0 0.0
2017-Jul-23 09:58N 37°56' E 023°38'0 0.0
2017-Jul-23 09:28N 37°56' E 023°38'0 0.0
2017-Jul-23 08:58N 37°56' E 023°38'0 0.0
2017-Jul-23 08:28N 37°56' E 023°38'0 0.0
2017-Jul-23 07:58N 37°56' E 023°38'0 0.0
2017-Jul-23 07:28N 37°56' E 023°38'0 0.0
2017-Jul-23 06:58N 37°56' E 023°38'0 0.0
2017-Jul-23 06:28N 37°56' E 023°38'0 0.0
2017-Jul-23 05:58N 37°56' E 023°38'0 0.0
2017-Jul-23 05:28N 37°56' E 023°38'0 0.4
2017-Jul-23 05:00N 37°56' E 023°38'2 3.3
2017-Jul-23 04:30N 37°55' E 023°37'1 1.5
2017-Jul-23 04:00N 37°55' E 023°37'5 9.7
2017-Jul-23 03:30N 37°50' E 023°40'713.5
2017-Jul-23 03:00N 37°44' E 023°43'713.1
2017-Jul-23 02:30N 37°39' E 023°49'713.1
2017-Jul-23 02:01N 37°36' E 023°56'1013.7
2017-Jul-23 01:17N 37°37' E 024°09'914.2
2017-Jul-23 00:38N 37°43' E 024°17'711.3
2017-Jul-23 00:00N 37°48' E 024°24'2110.9 350 / 231021.010.8 25.022.226.0
2017-Jul-22 23:59N 37°48' E 024°26'7 6.6
2017-Jul-22 23:00N 37°54' E 024°30'1111.2 360 / 211021.010.8 25.020.726.0
2017-Jul-22 22:00N 38°00' E 024°42'3516.9 330 / 311021.010.8 25.020.726.0
2017-Jul-22 19:55N 37°56' E 025°26'613.8
2017-Jul-22 19:30N 37°51' E 025°31'713.8
2017-Jul-22 19:00N 37°46' E 025°36'713.3
2017-Jul-22 18:30N 37°40' E 025°31'714.3
2017-Jul-22 18:00N 37°36' E 025°24'714.4
2017-Jul-22 17:30N 37°31' E 025°17'3 6.9
2017-Jul-22 17:00N 37°28' E 025°19'0 0.0
2017-Jul-22 16:30N 37°28' E 025°19'0 0.0
2017-Jul-22 16:00N 37°28' E 025°19'0 0.0
2017-Jul-22 15:27N 37°28' E 025°19'0 0.0
2017-Jul-22 15:00N 37°28' E 025°19'0 0.0
2017-Jul-22 13:57N 37°28' E 025°19'0 0.0
2017-Jul-22 13:24N 37°28' E 025°19'0 0.0
2017-Jul-22 12:57N 37°28' E 025°19'0 0.0
2017-Jul-22 12:30N 37°28' E 025°19'0 0.0
2017-Jul-22 12:00N 37°28' E 025°19'0 0.0
2017-Jul-22 11:27N 37°28' E 025°19'0 0.0
2017-Jul-22 11:00N 37°28' E 025°19'0 0.0
2017-Jul-22 10:27N 37°28' E 025°19'0 0.0
2017-Jul-22 09:57N 37°28' E 025°19'0 0.0
2017-Jul-22 09:30N 37°28' E 025°19'0 0.0
2017-Jul-22 09:00N 37°28' E 025°19'0 0.0
2017-Jul-22 08:30N 37°28' E 025°19'0 0.3
2017-Jul-22 08:01N 37°28' E 025°19'714.9
2017-Jul-22 07:31N 37°27' E 025°10'1019.6
2017-Jul-22 07:00N 37°21' E 024°59'1019.7
2017-Jul-22 06:31N 37°15' E 024°50'10218.4
2017-Jul-22 01:00N 36°24' E 023°00'2524.9 300 / 101019.010.8 26.023.225.0
2017-Jul-22 00:00N 36°18' E 022°30'1919.3 020 / 101019.010.8 26.023.225.0
2017-Jul-21 23:00N 36°18' E 022°06'4020.2 130 / 91020.010.8 26.023.225.0
2017-Jul-21 21:00N 36°30' E 021°18'2524.8 340 / 14 5.4 25.0
2017-Jul-21 20:00N 36°36' E 020°48'6521.7 340 / 14 10.8 26.0
2017-Jul-21 17:00N 36°54' E 019°30'1118.1 350 / 71024.027.0 25.0
2017-Jul-21 16:23N 36°58' E 019°17'615.7
2017-Jul-21 16:00N 36°54' E 019°12'1635.2 340 / 81022.010.8 25.022.226.0
2017-Jul-21 15:32N 37°03' E 018°55'221.2
2017-Jul-21 15:27N 37°04' E 018°53'2521.0
2017-Jul-21 14:15N 37°10' E 018°23'933.2
2017-Jul-21 14:00N 37°12' E 018°12'357.4 270 / 91022.010.8 25.022.226.0
2017-Jul-21 13:57N 37°12' E 018°15'1717.6
2017-Jul-21 12:58N 37°16' E 017°55'1420.9
2017-Jul-21 12:17N 37°20' E 017°37'621.1
2017-Jul-21 12:00N 37°21' E 017°30'1121.3
2017-Jul-21 11:30N 37°24' E 017°17'1021.3
2017-Jul-21 11:00N 37°27' E 017°04'463403.4
2017-Jul-21 11:00N 37°24' E 016°06'3674.6 190 / 31022.010.8 25.020.725.0
2017-Jul-21 10:30N 37°30' E 016°51'1121.2
2017-Jul-21 10:00N 37°32' E 016°38'1021.2
2017-Jul-21 09:30N 37°35' E 016°26'1121.3
2017-Jul-21 09:00N 37°38' E 016°13'1020.8
2017-Jul-21 08:30N 37°41' E 016°00'1019.8
2017-Jul-21 08:00N 37°45' E 015°49'1119.0
2017-Jul-21 07:25N 37°53' E 015°39'818.9
2017-Jul-21 07:00N 38°00' E 015°34'1019.6
2017-Jul-21 06:30N 38°10' E 015°35'714.9
2017-Jul-21 06:00N 38°16' E 015°40'917.8
2017-Jul-21 05:30N 38°24' E 015°37'1121.2
2017-Jul-21 05:00N 38°34' E 015°31'1020.9
2017-Jul-21 04:30N 38°43' E 015°26'1021.0
2017-Jul-21 04:00N 38°52' E 015°19'4289.8
2017-Jul-21 04:00N 38°48' E 015°18'1428.7 1026.010.8 26.0
2017-Jul-21 03:30N 39°01' E 015°11'1120.9
2017-Jul-21 03:00N 39°08' E 015°01'1121.0
2017-Jul-21 02:29N 39°16' E 014°51'1021.1
2017-Jul-21 02:00N 39°23' E 014°42'5427.0
2017-Jul-21 02:00N 39°18' E 014°42'1530.0 240 / 11021.010.8 25.020.726.0
2017-Jul-21 01:30N 39°31' E 014°32'1021.2
2017-Jul-21 01:01N 39°38' E 014°23'2134.3
2017-Jul-21 01:00N 39°36' E 014°24'1326.2 190 / 21021.010.8 25.020.7
2017-Jul-21 00:30N 39°45' E 014°13'1020.8
2017-Jul-21 00:00N 39°53' E 014°03'1021.0
2017-Jul-20 23:31N 40°00' E 013°54'1121.4
2017-Jul-20 23:00N 40°08' E 013°44'2148.6
2017-Jul-20 23:00N 40°06' E 013°42'1123.4 190 / 21021.010.8 25.020.7
2017-Jul-20 22:31N 40°15' E 013°34'1121.7
2017-Jul-20 22:00N 40°23' E 013°23'1221.7
2017-Jul-20 21:26N 40°32' E 013°12'1021.5
2017-Jul-20 20:59N 40°39' E 013°03'2921.3
2017-Jul-20 19:38N 41°00' E 012°38'621.3
2017-Jul-20 19:20N 41°05' E 012°33'7021.1
2017-Jul-20 16:01N 42°03' E 011°40'119.0
2017-Jul-20 15:59N 42°04' E 011°40'13 0.9
2017-Jul-20 01:57N 41°51' E 011°46'816.6
2017-Jul-20 01:27N 41°44' E 011°52'717.1
2017-Jul-20 01:00N 41°39' E 011°58'9571.7
2017-Jul-20 01:00N 41°30' E 012°00'5 9.7 280 / 71024.010.8 25.022.226.0
2017-Jul-20 00:28N 41°32' E 012°06'817.4
2017-Jul-19 23:59N 41°25' E 012°14'1515.4
2017-Jul-19 23:00N 41°12' E 012°24'1134.4 330 / 81024.010.8 25.022.226.0
2017-Jul-19 22:40N 41°12' E 012°39'1319.3
2017-Jul-19 22:00N 41°06' E 012°54'1115.6 290 / 131024.010.8 25.022.226.0
2017-Jul-19 21:18N 41°02' E 013°08'517.3
2017-Jul-19 21:01N 40°60' E 013°13'917.2
2017-Jul-19 20:31N 40°55' E 013°23'917.2
2017-Jul-19 20:01N 40°50' E 013°32'7393.0
2017-Jul-19 20:00N 40°48' E 013°24'1326.7 310 / 131024.010.8 26.021.7
2017-Jul-19 19:31N 40°44' E 013°40'816.1
2017-Jul-19 19:00N 40°39' E 013°48'816.1
2017-Jul-19 18:30N 40°38' E 013°59'917.1
2017-Jul-19 18:00N 40°42' E 014°08'817.0
2017-Jul-19 17:30N 40°48' E 014°16'2 4.2
2017-Jul-19 17:00N 40°50' E 014°16'0 0.0
2017-Jul-19 16:27N 40°50' E 014°16'0 0.0
2017-Jul-19 15:45N 40°50' E 014°16'0 0.0
2017-Jul-19 15:27N 40°50' E 014°16'0 0.0
2017-Jul-19 15:00N 40°50' E 014°16'0 0.0
2017-Jul-19 14:30N 40°50' E 014°16'0 0.0
2017-Jul-19 13:57N 40°50' E 014°16'0 0.0
2017-Jul-19 13:27N 40°50' E 014°16'0 0.0
2017-Jul-19 13:00N 40°50' E 014°16'0 0.0
2017-Jul-19 12:30N 40°50' E 014°16'0 0.0
2017-Jul-19 12:00N 40°50' E 014°16'0 0.0
2017-Jul-19 11:27N 40°50' E 014°16'0 0.0
2017-Jul-19 11:00N 40°50' E 014°16'0 0.0
2017-Jul-19 10:30N 40°50' E 014°16'0 0.0
2017-Jul-19 10:00N 40°50' E 014°16'0 0.0
2017-Jul-19 09:30N 40°50' E 014°16'0 0.0
2017-Jul-19 09:00N 40°50' E 014°16'1 0.2
2017-Jul-19 04:10N 40°50' E 014°17'2 8.5
2017-Jul-19 03:55N 40°48' E 014°17'814.3
2017-Jul-19 03:23N 40°40' E 014°17'513.9
2017-Jul-19 03:00N 40°35' E 014°17'6391.0
2017-Jul-19 03:00N 40°30' E 014°12'714.4 080 / 12 5.4 25.0
2017-Jul-19 02:30N 40°29' E 014°21'714.6
2017-Jul-19 02:00N 40°22' E 014°25'714.6
2017-Jul-19 01:30N 40°15' E 014°29'1018.5
2017-Jul-19 01:00N 40°06' E 014°30'2612.9 250 / 91021.010.8 24.021.125.0
2017-Jul-18 23:00N 39°48' E 014°54'1818.0 090 / 51021.010.8 24.021.125.0
2017-Jul-18 22:00N 39°30' E 014°54'1312.9 090 / 51021.010.8 24.021.125.0
2017-Jul-18 21:00N 39°18' E 015°00'1312.9 180 / 31021.010.8 24.021.125.0
2017-Jul-18 20:00N 39°06' E 015°06'2121.0 180 / 31021.010.8 24.021.125.0
2017-Jul-18 19:01N 38°50' E 015°22'014.9
2017-Jul-18 18:59N 38°49' E 015°22'715.1
2017-Jul-18 18:30N 38°43' E 015°26'815.1
2017-Jul-18 18:00N 38°36' E 015°31'815.1
2017-Jul-18 17:30N 38°29' E 015°35'714.9
2017-Jul-18 17:00N 38°23' E 015°40'713.8
2017-Jul-18 16:29N 38°16' E 015°41'713.7
2017-Jul-18 16:00N 38°12' E 015°34'0 0.0
2017-Jul-18 08:35N 38°12' E 015°33'0 0.0
2017-Jul-18 08:29N 38°12' E 015°33'0 0.0
2017-Jul-18 07:53N 38°12' E 015°33'0 0.0
2017-Jul-18 07:29N 38°12' E 015°33'0 0.0
2017-Jul-18 06:52N 38°12' E 015°33'0 0.0
2017-Jul-18 06:28N 38°12' E 015°33'0 0.0
2017-Jul-18 05:58N 38°12' E 015°33'0 0.0
2017-Jul-18 05:30N 38°12' E 015°34'2 3.5
2017-Jul-18 05:00N 38°13' E 015°35'5 9.6
2017-Jul-18 04:29N 38°08' E 015°36'713.6
2017-Jul-18 04:00N 38°02' E 015°36'1314.2
2017-Jul-18 03:05N 37°49' E 015°35'887.8
2017-Jul-18 03:00N 37°42' E 015°30'910.3 020 / 19 10.8 25.0
2017-Jul-18 02:09N 37°35' E 015°36'214.8
2017-Jul-18 02:00N 37°33' E 015°36'1514.5
2017-Jul-18 01:00N 37°18' E 015°36'2424.0 360 / 211024.027.0 26.021.726.0
2017-Jul-18 00:00N 36°54' E 015°36'3316.6 030 / 141024.027.0 26.021.726.0
2017-Jul-17 22:00N 36°24' E 015°18'2311.4 360 / 191024.027.0 26.021.726.0
2017-Jul-17 20:00N 36°12' E 014°54'5 9.3 090 / 41024.010.8 26.021.7
2017-Jul-17 19:29N 36°08' E 014°51'715.5
2017-Jul-17 19:00N 36°03' E 014°44'4573.3
2017-Jul-17 19:00N 36°06' E 014°48'1225.0 110 / 61024.010.8 26.021.7
2017-Jul-17 18:30N 35°58' E 014°36'7 0.7
2017-Jul-17 09:19N 35°53' E 014°31'2 6.5
2017-Jul-17 09:00N 35°55' E 014°33'714.3
2017-Jul-17 08:30N 35°60' E 014°39'1517.0
2017-Jul-17 07:37N 36°05' E 014°57'4216.0
2017-Jul-17 05:00N 36°12' E 015°48'7217.9 360 / 151020.0 5.4 25.0 26.0
2017-Jul-17 01:00N 36°36' E 017°12'4020.2 360 / 251023.0 24.0
2017-Jul-16 23:00N 36°48' E 018°00'6015.1 350 / 221023.0 24.0
2017-Jul-16 19:00N 37°06' E 019°12'5919.5 360 / 391017.0 5.4 25.022.226.0
2017-Jul-16 16:00N 37°18' E 020°24'2020.0 290 / 251015.0 5.4 26.0 26.0
2017-Jul-16 15:00N 37°24' E 020°48'30 2.3 320 / 31 10.8 27.0
2017-Jul-16 02:00N 37°06' E 021°18'3015.2 110 / 3 27.0
2017-Jul-16 00:00N 36°36' E 021°24'3417.0 330 / 51016.010.8 26.023.2
2017-Jul-15 22:00N 36°18' E 022°00'2424.2 300 / 51016.010.8 26.023.2
2017-Jul-15 21:00N 36°18' E 022°30'92 4.4 320 / 141016.010.8 26.023.2
2017-Jul-15 00:00N 36°24' E 024°24'1515.4 350 / 141024.0 24.0
2017-Jul-14 23:00N 36°36' E 024°12'5511.4 360 / 121024.0 24.0
2017-Jul-14 18:09N 37°28' E 023°48'312.2
2017-Jul-14 17:57N 37°30' E 023°47'512.4
2017-Jul-14 17:30N 37°35' E 023°45'612.7
2017-Jul-14 17:00N 37°41' E 023°41'612.6
2017-Jul-14 16:30N 37°47' E 023°39'713.0
2017-Jul-14 16:00N 37°53' E 023°37'3 6.6
2017-Jul-14 15:30N 37°56' E 023°38'0 0.1
2017-Jul-14 14:58N 37°56' E 023°38'0 0.0
2017-Jul-14 14:28N 37°56' E 023°38'0 0.0
2017-Jul-14 13:58N 37°56' E 023°38'0 0.0
2017-Jul-14 13:28N 37°56' E 023°38'0 0.0
2017-Jul-14 12:58N 37°56' E 023°38'0 0.0
2017-Jul-14 12:28N 37°56' E 023°38'0 0.0
2017-Jul-14 11:58N 37°56' E 023°38'0 0.0
2017-Jul-14 11:28N 37°56' E 023°38'0 0.0
2017-Jul-14 10:58N 37°56' E 023°38'0 0.0
2017-Jul-14 10:28N 37°56' E 023°38'0 0.0
2017-Jul-14 09:58N 37°56' E 023°38'0 0.0
2017-Jul-14 09:28N 37°56' E 023°38'0 0.0
2017-Jul-14 08:58N 37°56' E 023°38'0 0.0
2017-Jul-14 08:28N 37°56' E 023°38'0 0.0
2017-Jul-14 07:58N 37°56' E 023°38'0 0.0
2017-Jul-14 07:28N 37°56' E 023°38'0 0.0
2017-Jul-14 07:01N 37°56' E 023°38'0 0.0
2017-Jul-14 06:31N 37°56' E 023°38'0 0.0
2017-Jul-14 06:01N 37°56' E 023°38'0 0.0
2017-Jul-14 05:31N 37°56' E 023°38'1 2.8
2017-Jul-14 05:01N 37°56' E 023°37'2 4.9
2017-Jul-14 04:31N 37°53' E 023°38'713.2
2017-Jul-14 04:01N 37°47' E 023°41'714.5
2017-Jul-14 03:31N 37°41' E 023°45'815.7
2017-Jul-14 03:01N 37°33' E 023°46'815.5
2017-Jul-14 02:30N 37°25' E 023°49'815.4
2017-Jul-14 02:00N 37°18' E 023°53'4307.5
2017-Jul-14 02:00N 37°18' E 023°48'  

Dump ship's entire track history